Terminal Aerodrome Forecast
Issued by NWS Tampa Bay Area, FL

Current Version | Previous Version | Text Only | Print | Product List | Glossary On
Versions: 1 2 3 4 5 6 7 8 9 10 11 12 13 14 15 16 17 18 19 20 21 22 23 24 25 26 27 28
000
FTUS42 KTBW 011601 AAB
TAFTPA
TAF AMD
KTPA 011601Z 0116/0212 19010KT P6SM VCTS SCT025CB BKN100 OVC250
      TEMPO 0116/0117 VRB20G35KT 1SM +TSRA OVC020CB
     FM011800 22014G24KT P6SM VCTS SCT035CB BKN050 OVC100
     FM020100 21010KT P6SM -RA VCTS SCT025CB BKN040 OVC100
     FM020600 22008KT P6SM VCTS SCT025CB SCT040 OVC100=

USA.gov is the U.S. government's official web portal to all federal, state and local government web resources and services.